• Join FlightAware (Why Join?)
  • Login
  • US Flag 
05:33AM EDT


 

Airport Tracker/Info


-or-


 

Live Flight TrackerFlight Track Log ✈ AKX422 ✈ 31-May-2013 ✈ RJFF / FUK - RJOO / ITM

Flight Track Log - Related Links

Times and Time Zones

All times are in EDT time to prevent confusion due to time zone crossing. See the AKX422 flight status page for this flight to view local times or setup timezone preferences in your user account.

Time Position Orientation Groundspeed Altitude Reporting Facility
EDT Latitude Longitude Course Direction KTS MPH feet Rate Location/Type
07:47PM 33.7435 131.0505 72° East  Level Estimated
07:48PM 33.7745 131.1708 73° East  Level Estimated
07:49PM 33.8054 131.2912 73° East  Level Estimated
07:50PM 33.8362 131.4117 73° East  Level Estimated
07:51PM 33.8668 131.5323 73° East  Level Estimated
07:52PM 33.8974 131.6530 73° East  Level Estimated
07:53PM 33.9278 131.7737 73° East  Level Estimated
07:54PM 33.9581 131.8945 73° East  Level Estimated
07:55PM 33.9883 132.0155 73° East  Level Estimated
07:56PM 34.0184 132.1365 73° East  Level Estimated
07:57PM 34.0484 132.2576 73° East  Level Estimated
07:58PM 34.0782 132.3788 73° East  Level Estimated
07:59PM 34.1079 132.5000 73° East  Level Estimated
08:00PM 34.1375 132.6214 74° East  Level Estimated
08:01PM 34.1670 132.7428 74° East  Level Estimated
08:02PM 34.1964 132.8643 74° East  Level Estimated
08:03PM 34.2256 132.9859 74° East  Level Estimated
08:04PM 34.2547 133.1076 74° East  Level Estimated
08:05PM 34.2837 133.2294 74° East  Level Estimated
08:06PM 34.3126 133.3513 74° East  Level Estimated
08:07PM 34.3414 133.4732 74° East  Level Estimated
08:08PM 34.3700 133.5952 74° East  Level Estimated
08:09PM 34.3985 133.7173 74° East  Level Estimated
08:10PM 34.4269 133.8395 74° East  Level Estimated
08:11PM 34.4552 133.9618 74° East  Level Estimated
08:12PM 34.4833 134.0842 74° East  Level Estimated
08:13PM 34.5114 134.2066 74° East  Level Estimated
08:14PM 34.5393 134.3291 75° East  Level Estimated
08:15PM 34.5671 134.4517 75° East  Level Estimated
08:16PM 34.5947 134.5744 75° East  Level Estimated
08:17PM 34.6223 134.6972 75° East  Level Estimated
08:18PM 34.6497 134.8200 75° East  Level Estimated
08:19PM 34.6770 134.9430 75° East  Level Estimated
08:20PM 34.7042 135.0660 75° East  Level Estimated
08:21PM 34.7312 135.1891 75° East  Level Estimated
08:22PM 34.7581 135.3122 75° East  Level Estimated
08:23PM 34.7849 135.4355 75° East  Level Estimated
08:24PM 34.7855 135.4382 75° East  Level Estimated
08:25PM 34.7855 135.4382 141° Southeast  Level Estimated
08:26PM 34.7855 135.4382 141° Southeast  Level Estimated
08:27PM 34.7855 135.4382 141° Southeast  Level Estimated
08:28PM 34.7855 135.4382 141° Southeast  Level Estimated
08:29PM 34.7855 135.4382 141° Southeast  Level Estimated
08:30PM 34.7855 135.4382 141° Southeast  Level Estimated
08:31PM 34.7855 135.4382 141° Southeast  Level Estimated
08:32PM 34.7855 135.4382 141° Southeast  Level Estimated
08:33PM 34.7855 135.4382 141° Southeast  Level Estimated
08:34PM 34.7855 135.4382 141° Southeast  Level Estimated